createdAt,value
2019-03-09T00:01:12.345Z,100878.87
2019-03-09T00:03:41.665Z,100886.77
2019-03-09T00:06:10.998Z,100881.98
2019-03-09T00:08:40.322Z,100866.38
2019-03-09T00:11:09.644Z,100868.98
2019-03-09T00:13:40.931Z,100865.95
2019-03-09T00:16:10.252Z,100865.91
2019-03-09T00:18:39.576Z,100881.13
2019-03-09T00:21:09.052Z,100866.77
2019-03-09T00:23:40.016Z,100862.79
2019-03-09T00:26:20.279Z,100863.15
2019-03-09T00:28:57.438Z,100861.77
2019-03-09T00:31:31.124Z,100865.18
2019-03-09T00:34:00.512Z,100854.70
2019-03-09T00:36:30.157Z,100859.02
2019-03-09T00:38:59.480Z,100857.16
2019-03-09T00:41:28.987Z,100857.06
2019-03-09T00:43:58.379Z,100848.68
2019-03-09T00:46:27.705Z,100846.00
2019-03-09T00:48:57.025Z,100840.63
2019-03-09T00:51:26.387Z,100831.78
2019-03-09T00:53:55.952Z,100825.55
2019-03-09T00:56:25.281Z,100833.23
2019-03-09T00:58:54.613Z,100825.41
2019-03-09T01:01:23.939Z,100821.05
2019-03-09T01:03:53.265Z,100817.45
2019-03-09T01:06:22.606Z,100823.02
2019-03-09T01:08:51.928Z,100809.47
2019-03-09T01:11:21.257Z,100811.19
2019-03-09T01:13:50.582Z,100796.84
2019-03-09T01:16:19.909Z,100793.25
2019-03-09T01:18:49.239Z,100778.90
2019-03-09T01:21:18.576Z,100771.06
2019-03-09T01:23:47.903Z,100766.30
2019-03-09T01:26:18.942Z,100769.34
2019-03-09T01:28:48.267Z,100762.32
2019-03-09T01:31:17.596Z,100742.33
2019-03-09T01:33:47.017Z,100767.47
2019-03-09T01:36:16.432Z,100744.44
2019-03-09T01:38:45.788Z,100737.44
2019-03-09T01:41:15.075Z,100743.50
2019-03-09T01:43:44.473Z,100744.34
2019-03-09T01:46:13.803Z,100742.55
2019-03-09T01:48:43.136Z,100743.42
2019-03-09T01:51:12.458Z,100739.52
2019-03-09T01:53:41.784Z,100713.02
2019-03-09T01:56:11.179Z,100711.70
2019-03-09T01:58:40.575Z,100716.48
2019-03-09T02:01:09.886Z,100701.71
2019-03-09T02:03:39.220Z,100716.05
2019-03-09T02:06:08.546Z,100698.68
2019-03-09T02:08:38.217Z,100699.19
2019-03-09T02:11:07.520Z,100703.09
2019-03-09T02:13:37.207Z,100695.73
2019-03-09T02:16:06.544Z,100692.73
2019-03-09T02:18:35.871Z,100684.48
2019-03-09T02:21:05.192Z,100702.25
2019-03-09T02:23:34.528Z,100683.19
2019-03-09T02:26:03.854Z,100687.54
2019-03-09T02:28:33.183Z,100679.72
2019-03-09T02:31:02.530Z,100714.09
2019-03-09T02:33:31.838Z,100680.67
2019-03-09T02:36:01.163Z,100687.61
2019-03-09T02:38:32.132Z,100688.11
2019-03-09T02:41:01.453Z,100672.91
2019-03-09T02:43:31.848Z,100689.00
2019-03-09T02:46:01.522Z,100683.33
2019-03-09T02:48:30.825Z,100665.95
2019-03-09T02:51:01.124Z,100672.98
2019-03-09T02:53:30.461Z,100672.47
2019-03-09T02:56:04.939Z,100680.75
2019-03-09T02:58:34.256Z,100680.37
2019-03-09T03:01:05.238Z,100702.53
2019-03-09T03:03:35.526Z,100677.34
2019-03-09T03:06:04.849Z,100672.18
2019-03-09T03:08:34.185Z,100686.53
2019-03-09T03:11:03.838Z,100674.37
2019-03-09T03:13:33.210Z,100677.91
2019-03-09T03:16:02.557Z,100679.26
2019-03-09T03:18:32.857Z,100676.28
2019-03-09T03:21:02.187Z,100688.89
2019-03-09T03:23:32.472Z,100687.59
2019-03-09T03:26:01.847Z,100690.69
2019-03-09T03:28:31.153Z,100690.69
2019-03-09T03:31:00.471Z,100680.22
2019-03-09T03:33:29.821Z,100680.20
2019-03-09T03:35:59.107Z,100678.05
2019-03-09T03:38:28.427Z,100678.97
2019-03-09T03:40:58.078Z,100673.39
2019-03-09T03:43:27.783Z,100678.60
2019-03-09T03:45:57.083Z,100687.34
2019-03-09T03:48:26.428Z,100690.78
2019-03-09T03:50:55.768Z,100688.66
2019-03-09T03:53:25.090Z,100693.45
2019-03-09T03:55:54.607Z,100705.63
2019-03-09T03:58:23.940Z,100702.20
2019-03-09T04:00:53.560Z,100712.19
2019-03-09T04:03:23.857Z,100701.38
2019-03-09T04:05:53.417Z,100710.03
2019-03-09T04:08:22.742Z,100707.05
2019-03-09T04:10:52.399Z,100712.70
2019-03-09T04:13:21.716Z,100731.41
2019-03-09T04:15:52.016Z,100727.11
2019-03-09T04:18:21.404Z,100747.52
2019-03-09T04:20:50.734Z,100749.28
2019-03-09T04:23:20.074Z,100765.86
2019-03-09T04:25:49.446Z,100772.80
2019-03-09T04:28:18.786Z,100762.81
2019-03-09T04:30:48.149Z,100769.34
2019-03-09T04:33:17.596Z,100775.86
2019-03-09T04:35:46.917Z,100785.92
2019-03-09T04:38:16.233Z,100782.01
2019-03-09T04:40:45.584Z,100790.34
2019-03-09T04:43:14.900Z,100788.60
2019-03-09T04:45:44.227Z,100796.49
2019-03-09T04:48:13.543Z,100792.16
2019-03-09T04:50:43.382Z,100797.44
2019-03-09T04:53:12.698Z,100799.25
2019-03-09T04:55:42.042Z,100808.82
2019-03-09T04:58:11.367Z,100794.97
2019-03-09T05:00:40.984Z,100798.45
2019-03-09T05:03:10.307Z,100798.50
2019-03-09T05:05:39.705Z,100803.73
2019-03-09T05:08:12.077Z,100801.12
2019-03-09T05:10:47.545Z,100809.81
2019-03-09T05:13:26.700Z,100804.66
2019-03-09T05:15:56.025Z,100808.56
2019-03-09T05:18:25.375Z,100805.08
2019-03-09T05:20:54.716Z,100827.22
2019-03-09T05:23:24.061Z,100827.70
2019-03-09T05:25:53.381Z,100839.02
2019-03-09T05:28:22.956Z,100854.23
2019-03-09T05:30:52.282Z,100865.56
2019-03-09T05:33:21.628Z,100849.08
2019-03-09T05:35:50.958Z,100844.24
2019-03-09T05:38:20.287Z,100845.05
2019-03-09T05:40:49.607Z,100876.84
2019-03-09T05:43:19.289Z,100862.02
2019-03-09T05:45:48.638Z,100862.42
2019-03-09T05:48:17.979Z,100852.80
2019-03-09T05:50:47.336Z,100840.61
2019-03-09T05:53:18.608Z,100835.72
2019-03-09T05:55:47.940Z,100834.02
2019-03-09T05:58:17.284Z,100835.72
2019-03-09T06:00:46.633Z,100841.36
2019-03-09T06:03:15.988Z,100851.28
2019-03-09T06:05:47.281Z,100852.45
2019-03-09T06:08:16.710Z,100849.41
2019-03-09T06:10:46.058Z,100856.81
2019-03-09T06:13:15.451Z,100862.44
2019-03-09T06:15:44.783Z,100855.94
2019-03-09T06:18:14.114Z,100862.89
2019-03-09T06:20:43.466Z,100874.67
2019-03-09T06:23:12.799Z,100880.34
2019-03-09T06:25:42.127Z,100900.40
2019-03-09T06:28:12.447Z,100919.96
2019-03-09T06:30:42.060Z,100926.09
2019-03-09T06:33:23.363Z,100923.48
2019-03-09T06:35:56.069Z,100930.50
2019-03-09T06:38:44.685Z,100931.02
2019-03-09T06:41:25.869Z,100932.37
2019-03-09T06:43:55.226Z,100946.75
2019-03-09T06:46:24.557Z,100933.34
2019-03-09T06:48:53.882Z,100931.28
2019-03-09T06:51:23.220Z,100927.83
2019-03-09T06:53:52.555Z,100924.42
2019-03-09T06:56:21.906Z,100964.50
2019-03-09T06:58:51.472Z,100964.08
2019-03-09T07:01:22.607Z,100971.11
2019-03-09T07:03:51.958Z,100972.92
2019-03-09T07:06:21.359Z,100971.25
2019-03-09T07:08:50.720Z,100960.87
2019-03-09T07:11:20.073Z,100959.59
2019-03-09T07:13:53.188Z,100958.28
2019-03-09T07:16:20.774Z,100952.69
2019-03-09T07:18:50.126Z,100940.99
2019-03-09T07:21:19.460Z,100947.52
2019-03-09T07:23:48.808Z,100963.70
2019-03-09T07:26:19.415Z,100979.44
2019-03-09T07:28:48.746Z,100975.53
2019-03-09T07:31:18.383Z,100972.92
2019-03-09T07:33:47.711Z,100992.61
2019-03-09T07:36:17.068Z,100997.89
2019-03-09T07:38:46.415Z,100994.41
2019-03-09T07:41:16.009Z,100988.84
2019-03-09T07:43:45.379Z,100990.20
2019-03-09T07:46:15.066Z,100990.69
2019-03-09T07:48:44.414Z,100995.88
2019-03-09T07:51:14.077Z,101000.77
2019-03-09T07:53:43.431Z,100992.08
2019-03-09T07:56:12.762Z,100988.23
2019-03-09T07:58:42.096Z,100974.34
2019-03-09T08:01:11.432Z,100986.61
2019-03-09T08:03:40.819Z,100987.96
2019-03-09T08:06:10.167Z,100979.27
2019-03-09T08:08:40.641Z,100980.20
2019-03-09T08:11:09.979Z,100991.97
2019-03-09T08:13:39.312Z,100973.73
2019-03-09T08:16:08.645Z,100970.74
2019-03-09T08:18:38.043Z,100968.13
2019-03-09T08:21:07.381Z,100979.52
2019-03-09T08:23:36.703Z,100975.15
2019-03-09T08:26:06.032Z,100980.88
2019-03-09T08:28:35.371Z,100970.91
2019-03-09T08:31:04.940Z,100968.73
2019-03-09T08:33:35.856Z,100977.02
2019-03-09T08:36:05.484Z,100988.84
2019-03-09T08:38:35.213Z,100980.57
2019-03-09T08:41:04.601Z,100999.37
2019-03-09T08:43:33.891Z,101011.62
2019-03-09T08:46:03.351Z,101009.87
2019-03-09T08:48:32.655Z,101014.73
2019-03-09T08:51:02.045Z,101008.68
2019-03-09T08:53:31.488Z,101014.86
2019-03-09T08:56:00.792Z,101014.03
2019-03-09T08:58:30.103Z,100997.52
2019-03-09T09:00:59.420Z,101014.10
2019-03-09T09:03:28.986Z,101036.38
2019-03-09T09:05:58.313Z,101014.62
2019-03-09T09:08:27.664Z,101002.43
2019-03-09T09:10:56.972Z,101013.83
2019-03-09T09:13:26.551Z,100998.17
2019-03-09T09:15:55.893Z,101001.33
2019-03-09T09:18:25.451Z,101014.03
2019-03-09T09:20:54.780Z,101014.03
2019-03-09T09:23:24.383Z,100998.33
2019-03-09T09:25:53.710Z,101017.14
2019-03-09T09:28:23.261Z,101021.51
2019-03-09T09:30:52.584Z,101029.41
2019-03-09T09:33:21.942Z,101036.44
2019-03-09T09:35:51.281Z,101041.72
2019-03-09T09:38:20.605Z,101033.05
2019-03-09T09:40:50.178Z,101015.64
2019-03-09T09:43:19.499Z,101014.42
2019-03-09T09:45:49.074Z,101006.22
2019-03-09T09:48:18.412Z,101013.25
2019-03-09T09:50:47.738Z,101005.05
2019-03-09T09:53:17.097Z,101006.75
2019-03-09T09:55:46.439Z,101002.39
2019-03-09T09:58:15.771Z,100998.46
2019-03-09T10:00:45.134Z,100980.20
2019-03-09T10:03:14.467Z,100979.34
2019-03-09T10:05:44.041Z,100974.97
2019-03-09T10:08:13.366Z,100996.41
2019-03-09T10:10:42.946Z,101000.33
2019-03-09T10:13:12.278Z,100997.23
2019-03-09T10:15:41.627Z,101000.69
2019-03-09T10:18:10.974Z,101007.19
2019-03-09T10:20:40.572Z,101002.82
2019-03-09T10:23:09.904Z,100996.76
2019-03-09T10:25:39.494Z,100998.06
2019-03-09T10:28:09.049Z,100983.62
2019-03-09T10:30:38.382Z,100968.74
2019-03-09T10:33:07.801Z,100962.63
2019-03-09T10:35:37.126Z,100950.41
2019-03-09T10:38:06.463Z,100944.30
2019-03-09T10:40:36.096Z,100933.47
2019-03-09T10:43:05.493Z,100921.69
2019-03-09T10:45:37.786Z,100917.31
2019-03-09T10:48:07.183Z,100922.16
2019-03-09T10:50:36.851Z,100905.61
2019-03-09T10:53:06.755Z,100904.77
2019-03-09T10:55:36.363Z,100905.23
2019-03-09T10:58:06.143Z,100907.92
2019-03-09T11:00:37.052Z,100895.73
2019-03-09T11:03:06.447Z,100886.62
2019-03-09T11:05:35.876Z,100894.52
2019-03-09T11:08:05.535Z,100901.53
2019-03-09T11:10:34.878Z,100912.42
2019-03-09T11:13:04.215Z,100911.58
2019-03-09T11:15:34.332Z,100902.88
2019-03-09T11:18:03.701Z,100931.77
2019-03-09T11:20:33.120Z,100938.31
2019-03-09T11:23:02.781Z,100960.59
2019-03-09T11:25:32.113Z,100942.72
2019-03-09T11:28:07.324Z,100951.89
2019-03-09T11:30:36.891Z,100909.89
2019-03-09T11:33:06.309Z,100937.00
2019-03-09T11:35:35.882Z,100911.72
2019-03-09T11:38:05.530Z,100913.06
2019-03-09T11:40:34.943Z,100902.16
2019-03-09T11:43:04.436Z,100899.59
2019-03-09T11:45:34.053Z,100872.11
2019-03-09T11:48:03.390Z,100865.59
2019-03-09T11:50:32.741Z,100870.85
2019-03-09T11:53:02.182Z,100866.98
2019-03-09T11:55:31.519Z,100852.14
2019-03-09T11:58:00.851Z,100837.77
2019-03-09T12:00:32.098Z,100837.34
2019-03-09T12:03:01.459Z,100840.01
2019-03-09T12:05:30.796Z,100831.25
2019-03-09T12:08:00.162Z,100835.65
2019-03-09T12:10:29.729Z,100839.64
2019-03-09T12:12:59.162Z,100842.28
2019-03-09T12:15:28.558Z,100834.38
2019-03-09T12:17:58.877Z,100835.27
2019-03-09T12:20:29.841Z,100838.33
2019-03-09T12:23:17.206Z,100836.15
2019-03-09T12:25:46.552Z,100818.63
2019-03-09T12:28:16.923Z,100818.19
2019-03-09T12:30:46.303Z,100808.94
2019-03-09T12:33:15.642Z,100794.89
2019-03-09T12:35:45.534Z,100772.91
2019-03-09T12:38:14.866Z,100797.48
2019-03-09T12:40:44.241Z,100783.86
2019-03-09T12:43:13.571Z,100772.48
2019-03-09T12:45:42.906Z,100749.69
2019-03-09T12:48:12.243Z,100727.81
2019-03-09T12:50:41.734Z,100731.83
2019-03-09T12:53:11.414Z,100712.47
2019-03-09T12:55:40.985Z,100716.91
2019-03-09T12:58:10.399Z,100720.01
2019-03-09T13:00:39.750Z,100704.22
2019-03-09T13:03:09.110Z,100706.86
2019-03-09T13:05:38.464Z,100685.41
2019-03-09T13:08:07.829Z,100709.48
2019-03-09T13:10:37.233Z,100679.26
2019-03-09T13:13:06.640Z,100683.64
2019-03-09T13:15:36.062Z,100671.38
2019-03-09T13:18:05.612Z,100693.39
2019-03-09T13:20:34.950Z,100697.36
2019-03-09T13:23:04.552Z,100688.61
2019-03-09T13:25:34.148Z,100682.94
2019-03-09T13:28:03.479Z,100688.63
2019-03-09T13:30:32.833Z,100694.72
2019-03-09T13:33:02.218Z,100709.92
2019-03-09T13:35:31.512Z,100702.45
2019-03-09T13:38:00.844Z,100741.30
2019-03-09T13:40:30.247Z,100742.16
2019-03-09T13:42:59.819Z,100757.40
2019-03-09T13:45:29.154Z,100721.57
2019-03-09T13:47:58.750Z,100708.89
2019-03-09T13:50:28.078Z,100700.98
2019-03-09T13:52:57.417Z,100732.78
2019-03-09T13:55:26.751Z,100678.74
2019-03-09T13:57:56.346Z,100678.34
2019-03-09T14:00:25.741Z,100672.22
2019-03-09T14:02:55.111Z,100636.42
2019-03-09T14:05:24.734Z,100658.26
2019-03-09T14:07:54.076Z,100645.13
2019-03-09T14:10:23.442Z,100671.79
2019-03-09T14:12:53.088Z,100661.73
2019-03-09T14:15:22.433Z,100691.53
2019-03-09T14:17:53.032Z,100670.36
2019-03-09T14:20:22.379Z,100674.92
2019-03-09T14:22:51.718Z,100672.00
2019-03-09T14:25:21.052Z,100665.39
2019-03-09T14:27:50.669Z,100675.45
2019-03-09T14:30:20.341Z,100667.20
2019-03-09T14:32:49.926Z,100705.50
2019-03-09T14:35:19.258Z,100691.78
2019-03-09T14:37:48.590Z,100702.39
2019-03-09T14:40:17.996Z,100670.86
2019-03-09T14:42:47.324Z,100659.55
2019-03-09T14:45:24.052Z,100654.55
2019-03-09T14:47:53.638Z,100661.25
2019-03-09T14:50:22.963Z,100653.19
2019-03-09T14:52:52.318Z,100645.94
2019-03-09T14:55:21.963Z,100639.08
2019-03-09T14:57:51.300Z,100651.82
2019-03-09T15:00:22.782Z,100626.64
2019-03-09T15:02:52.124Z,100613.13
2019-03-09T15:05:21.449Z,100623.64
2019-03-09T15:07:50.777Z,100625.94
2019-03-09T15:10:20.133Z,100636.03
2019-03-09T15:12:49.691Z,100639.53
2019-03-09T15:15:20.357Z,100638.20
2019-03-09T15:17:49.681Z,100636.43
2019-03-09T15:20:19.273Z,100660.80
2019-03-09T15:22:48.597Z,100645.50
2019-03-09T15:25:19.171Z,100622.83
2019-03-09T15:27:48.900Z,100637.63
2019-03-09T15:30:19.071Z,100656.38
2019-03-09T15:32:48.404Z,100651.98
2019-03-09T15:35:18.190Z,100678.58
2019-03-09T15:37:47.811Z,100712.66
2019-03-09T15:40:18.286Z,100722.72
2019-03-09T15:42:47.977Z,100708.80
2019-03-09T15:45:19.458Z,100759.75
2019-03-09T15:47:48.798Z,100718.39
2019-03-09T15:50:22.163Z,100737.18
2019-03-09T15:52:51.514Z,100726.77
2019-03-09T15:55:20.871Z,100774.28
2019-03-09T15:57:50.313Z,100768.25
2019-03-09T16:00:23.808Z,100760.36
2019-03-09T16:02:53.206Z,100762.14
2019-03-09T16:05:22.557Z,100786.13
2019-03-09T16:07:51.902Z,100785.63
2019-03-09T16:10:22.183Z,100868.97
2019-03-09T16:12:51.501Z,100936.02
2019-03-09T16:15:20.830Z,100955.17
2019-03-09T16:17:50.196Z,100955.64
2019-03-09T16:20:28.518Z,100954.63
2019-03-09T16:22:57.918Z,100957.24
2019-03-09T16:25:28.809Z,100943.33
2019-03-09T16:27:58.410Z,100944.66
2019-03-09T16:30:27.740Z,100946.23
2019-03-09T16:32:57.058Z,100973.94
2019-03-09T16:35:26.439Z,100957.53
2019-03-09T16:37:55.717Z,100957.58
2019-03-09T16:40:26.581Z,100949.27
2019-03-09T16:42:56.204Z,100951.16
2019-03-09T16:45:25.534Z,100968.72
2019-03-09T16:47:54.846Z,100967.05
2019-03-09T16:50:24.205Z,100967.50
2019-03-09T16:52:53.642Z,100995.39
2019-03-09T16:55:22.971Z,100979.73
2019-03-09T16:57:52.295Z,101001.14
2019-03-09T17:00:22.763Z,101032.08
2019-03-09T17:02:52.086Z,101028.11
2019-03-09T17:05:21.433Z,101037.73
2019-03-09T17:07:50.763Z,101052.06
2019-03-09T17:10:20.157Z,101067.66
2019-03-09T17:12:49.495Z,101062.07
2019-03-09T17:15:22.102Z,101053.38
2019-03-09T17:17:51.711Z,101069.83
2019-03-09T17:20:21.014Z,101077.20
2019-03-09T17:22:50.346Z,101090.62
2019-03-09T17:25:19.674Z,101092.86
2019-03-09T17:27:49.076Z,101096.77
2019-03-09T17:30:19.775Z,101121.92
2019-03-09T17:32:49.173Z,101127.59
2019-03-09T17:35:18.506Z,101128.42
2019-03-09T17:37:47.832Z,101135.41
2019-03-09T17:40:17.741Z,101137.57
2019-03-09T17:42:47.391Z,101141.06
2019-03-09T17:45:19.552Z,101142.42
2019-03-09T17:47:48.937Z,101154.61
2019-03-09T17:50:18.263Z,101168.95
2019-03-09T17:52:47.617Z,101154.61
2019-03-09T17:55:16.945Z,101156.81
2019-03-09T17:57:46.300Z,101166.85
2019-03-09T18:00:27.668Z,101167.65
2019-03-09T18:02:57.019Z,101178.00
2019-03-09T18:05:26.348Z,101185.83
2019-03-09T18:07:55.909Z,101200.61
2019-03-09T18:10:46.113Z,101196.23
2019-03-09T18:13:15.675Z,101197.92
2019-03-09T18:15:45.003Z,101209.71
2019-03-09T18:18:14.974Z,101220.58
2019-03-09T18:20:44.547Z,101225.79
2019-03-09T18:23:14.135Z,101233.55
2019-03-09T18:25:43.502Z,101236.08
2019-03-09T18:28:12.811Z,101243.63
2019-03-09T18:30:42.134Z,101247.05
2019-03-09T18:33:11.500Z,101250.94
2019-03-09T18:35:41.787Z,101251.68
2019-03-09T18:38:11.256Z,101262.25
2019-03-09T18:40:40.844Z,101264.49
2019-03-09T18:43:10.197Z,101270.14
2019-03-09T18:45:39.515Z,101268.86
2019-03-09T18:48:09.138Z,101268.83
2019-03-09T18:50:38.465Z,101272.31
2019-03-09T18:53:08.190Z,101281.45
2019-03-09T18:55:37.516Z,101278.84
2019-03-09T18:58:06.912Z,101291.00
2019-03-09T19:00:36.243Z,101295.20
2019-03-09T19:03:05.665Z,101299.22
2019-03-09T19:05:35.082Z,101297.33
2019-03-09T19:08:04.412Z,101298.66
2019-03-09T19:10:33.902Z,101301.23
2019-03-09T19:13:03.302Z,101303.84
2019-03-09T19:15:33.612Z,101309.52
2019-03-09T19:18:02.934Z,101310.91
2019-03-09T19:20:32.271Z,101309.88
2019-03-09T19:23:01.603Z,101312.13
2019-03-09T19:25:30.962Z,101312.55
2019-03-09T19:28:00.292Z,101321.67
2019-03-09T19:30:29.885Z,101311.36
2019-03-09T19:33:00.689Z,101314.76
2019-03-09T19:35:30.125Z,101324.85
2019-03-09T19:37:59.477Z,101329.22
2019-03-09T19:40:29.040Z,101331.38
2019-03-09T19:42:58.375Z,101331.83
2019-03-09T19:45:27.719Z,101332.31
2019-03-09T19:47:57.387Z,101330.95
2019-03-09T19:50:27.964Z,101344.63
2019-03-09T19:52:59.073Z,101344.20
2019-03-09T19:55:28.362Z,101342.02
2019-03-09T19:57:57.697Z,101338.89
2019-03-09T20:00:27.360Z,101332.77
2019-03-09T20:02:56.694Z,101340.59
2019-03-09T20:05:26.034Z,101340.14
2019-03-09T20:07:55.434Z,101339.83
2019-03-09T20:10:24.772Z,101339.43
2019-03-09T20:12:54.157Z,101340.20
2019-03-09T20:15:23.818Z,101349.84
2019-03-09T20:17:53.191Z,101343.31
2019-03-09T20:20:22.609Z,101334.16
2019-03-09T20:22:52.308Z,101335.03
2019-03-09T20:25:21.641Z,101345.81
2019-03-09T20:27:51.214Z,101347.57
2019-03-09T20:30:21.607Z,101363.31
2019-03-09T20:32:51.005Z,101357.09
2019-03-09T20:35:20.349Z,101365.63
2019-03-09T20:37:49.809Z,101369.87
2019-03-09T20:40:19.213Z,101372.97
2019-03-09T20:42:48.607Z,101369.39
2019-03-09T20:45:22.315Z,101371.66
2019-03-09T20:47:50.912Z,101372.33
2019-03-09T20:50:24.013Z,101370.14
2019-03-09T20:52:56.243Z,101374.06
2019-03-09T20:55:25.568Z,101375.63
2019-03-09T20:57:55.209Z,101380.81
2019-03-09T21:00:24.808Z,101377.33
2019-03-09T21:02:54.173Z,101372.45
2019-03-09T21:05:23.528Z,101371.14
2019-03-09T21:07:52.904Z,101375.81
2019-03-09T21:10:22.192Z,101380.93
2019-03-09T21:13:02.896Z,101383.44
2019-03-09T21:15:32.347Z,101377.35
2019-03-09T21:18:01.962Z,101368.20
2019-03-09T21:20:32.673Z,101362.13
2019-03-09T21:23:02.097Z,101361.70
2019-03-09T21:25:31.488Z,101362.68
2019-03-09T21:28:00.815Z,101368.41
2019-03-09T21:30:30.422Z,101375.16
2019-03-09T21:33:00.040Z,101376.47
2019-03-09T21:35:29.304Z,101383.28
2019-03-09T21:37:58.697Z,101377.55
2019-03-09T21:40:28.044Z,101372.47
2019-03-09T21:42:57.614Z,101374.71
2019-03-09T21:45:27.159Z,101371.55
2019-03-09T21:47:56.532Z,101371.59
2019-03-09T21:50:25.866Z,101366.34
2019-03-09T21:52:55.261Z,101364.94
2019-03-09T21:55:24.598Z,101361.48
2019-03-09T21:57:54.169Z,101367.12
2019-03-09T22:00:23.899Z,101364.06
2019-03-09T22:02:53.244Z,101368.33
2019-03-09T22:05:22.593Z,101367.55
2019-03-09T22:07:51.980Z,101365.34
2019-03-09T22:10:21.308Z,101374.16
2019-03-09T22:12:50.643Z,101375.40
2019-03-09T22:15:19.975Z,101388.50
2019-03-09T22:17:49.302Z,101385.44
2019-03-09T22:20:20.703Z,101384.59
2019-03-09T22:22:51.317Z,101376.02
2019-03-09T22:25:20.681Z,101370.80
2019-03-09T22:27:50.013Z,101381.33
2019-03-09T22:30:20.889Z,101377.87
2019-03-09T22:32:50.481Z,101372.63
2019-03-09T22:35:19.951Z,101374.41
2019-03-09T22:37:49.315Z,101375.29
2019-03-09T22:40:19.781Z,101370.05
2019-03-09T22:42:49.245Z,101363.89
2019-03-09T22:45:18.584Z,101360.14
2019-03-09T22:47:47.929Z,101367.53
2019-03-09T22:50:21.024Z,101360.62
2019-03-09T22:52:50.346Z,101364.95
2019-03-09T22:55:19.920Z,101366.29
2019-03-09T22:57:49.323Z,101369.45
2019-03-09T23:00:23.417Z,101364.32
2019-03-09T23:02:54.704Z,101369.96
2019-03-09T23:05:24.098Z,101366.72
2019-03-09T23:07:53.894Z,101364.75
2019-03-09T23:10:25.704Z,101368.66
2019-03-09T23:12:55.049Z,101358.83
2019-03-09T23:15:24.397Z,101362.34
2019-03-09T23:17:54.893Z,101352.84
2019-03-09T23:20:24.224Z,101349.53
2019-03-09T23:22:53.573Z,101342.98
2019-03-09T23:25:22.974Z,101344.26
2019-03-09T23:27:52.303Z,101344.73
2019-03-09T23:30:23.434Z,101340.34
2019-03-09T23:32:53.155Z,101339.94
2019-03-09T23:35:22.483Z,101338.64
2019-03-09T23:37:51.871Z,101335.52
2019-03-09T23:40:23.048Z,101332.55
2019-03-09T23:42:52.383Z,101336.80
2019-03-09T23:45:23.364Z,101330.70
2019-03-09T23:47:52.771Z,101335.47
2019-03-09T23:50:22.232Z,101334.22
2019-03-09T23:52:51.643Z,101334.70
2019-03-09T23:55:23.178Z,101327.69
2019-03-09T23:57:52.542Z,101321.66
